sensor_id;sensor_type;location;lat;lon;timestamp;P1;durP1;ratioP1;P2;durP2;ratioP2
50309;SDS011;36207;51.850;21.698;2023-06-14T00:00:59;9.20;;;6.20;;
50309;SDS011;36207;51.850;21.698;2023-06-14T00:03:42;10.70;;;6.60;;
50309;SDS011;36207;51.850;21.698;2023-06-14T00:06:08;10.00;;;6.20;;
50309;SDS011;36207;51.850;21.698;2023-06-14T00:08:34;11.80;;;6.90;;
50309;SDS011;36207;51.850;21.698;2023-06-14T00:11:00;8.40;;;6.80;;
50309;SDS011;36207;51.850;21.698;2023-06-14T00:13:26;10.30;;;6.70;;
50309;SDS011;36207;51.850;21.698;2023-06-14T00:15:53;11.60;;;7.10;;
50309;SDS011;36207;51.850;21.698;2023-06-14T00:18:21;10.50;;;7.00;;
50309;SDS011;36207;51.850;21.698;2023-06-14T00:20:49;12.10;;;7.30;;
50309;SDS011;36207;51.850;21.698;2023-06-14T00:23:16;11.90;;;7.10;;
50309;SDS011;36207;51.850;21.698;2023-06-14T00:25:43;17.00;;;7.10;;
50309;SDS011;36207;51.850;21.698;2023-06-14T00:28:09;13.50;;;7.30;;
50309;SDS011;36207;51.850;21.698;2023-06-14T00:30:35;10.70;;;7.40;;
50309;SDS011;36207;51.850;21.698;2023-06-14T00:33:01;13.00;;;6.90;;
50309;SDS011;36207;51.850;21.698;2023-06-14T00:35:27;10.20;;;6.70;;
50309;SDS011;36207;51.850;21.698;2023-06-14T00:37:53;11.20;;;7.10;;
50309;SDS011;36207;51.850;21.698;2023-06-14T00:40:20;12.70;;;7.30;;
50309;SDS011;36207;51.850;21.698;2023-06-14T00:42:47;11.40;;;7.10;;
50309;SDS011;36207;51.850;21.698;2023-06-14T00:45:13;13.10;;;7.40;;
50309;SDS011;36207;51.850;21.698;2023-06-14T00:47:40;11.10;;;6.90;;
50309;SDS011;36207;51.850;21.698;2023-06-14T00:50:08;9.10;;;7.10;;
50309;SDS011;36207;51.850;21.698;2023-06-14T00:52:35;11.40;;;7.20;;
50309;SDS011;36207;51.850;21.698;2023-06-14T00:55:02;10.90;;;7.10;;
50309;SDS011;36207;51.850;21.698;2023-06-14T00:57:28;10.80;;;6.90;;
50309;SDS011;36207;51.850;21.698;2023-06-14T00:59:55;10.80;;;6.70;;
50309;SDS011;36207;51.850;21.698;2023-06-14T01:02:21;10.40;;;7.10;;
50309;SDS011;36207;51.850;21.698;2023-06-14T01:04:48;11.30;;;7.30;;
50309;SDS011;36207;51.850;21.698;2023-06-14T01:12:37;12.90;;;7.40;;
50309;SDS011;36207;51.850;21.698;2023-06-14T01:15:12;11.50;;;7.20;;
50309;SDS011;36207;51.850;21.698;2023-06-14T01:17:39;10.70;;;7.10;;
50309;SDS011;36207;51.850;21.698;2023-06-14T01:20:12;9.90;;;6.80;;
50309;SDS011;36207;51.850;21.698;2023-06-14T01:22:52;11.00;;;7.20;;
50309;SDS011;36207;51.850;21.698;2023-06-14T01:25:19;11.30;;;7.20;;
50309;SDS011;36207;51.850;21.698;2023-06-14T01:27:47;10.60;;;6.50;;
50309;SDS011;36207;51.850;21.698;2023-06-14T01:30:15;11.10;;;6.70;;
50309;SDS011;36207;51.850;21.698;2023-06-14T01:32:42;11.60;;;7.20;;
50309;SDS011;36207;51.850;21.698;2023-06-14T01:35:10;9.80;;;6.80;;
50309;SDS011;36207;51.850;21.698;2023-06-14T01:37:37;10.30;;;7.10;;
50309;SDS011;36207;51.850;21.698;2023-06-14T01:40:05;12.80;;;7.20;;
50309;SDS011;36207;51.850;21.698;2023-06-14T01:42:35;10.40;;;6.50;;
50309;SDS011;36207;51.850;21.698;2023-06-14T01:45:02;13.30;;;7.20;;
50309;SDS011;36207;51.850;21.698;2023-06-14T01:47:32;12.40;;;6.80;;
50309;SDS011;36207;51.850;21.698;2023-06-14T01:50:01;9.00;;;6.70;;
50309;SDS011;36207;51.850;21.698;2023-06-14T01:52:30;10.60;;;7.40;;
50309;SDS011;36207;51.850;21.698;2023-06-14T01:54:57;10.80;;;7.60;;
50309;SDS011;36207;51.850;21.698;2023-06-14T01:57:23;10.60;;;7.10;;
50309;SDS011;36207;51.850;21.698;2023-06-14T01:59:52;11.00;;;6.80;;
50309;SDS011;36207;51.850;21.698;2023-06-14T02:02:18;10.80;;;7.20;;
50309;SDS011;36207;51.850;21.698;2023-06-14T02:04:44;10.80;;;7.60;;
50309;SDS011;36207;51.850;21.698;2023-06-14T02:07:13;10.20;;;7.70;;
50309;SDS011;36207;51.850;21.698;2023-06-14T02:09:42;10.60;;;7.10;;
50309;SDS011;36207;51.850;21.698;2023-06-14T02:12:09;9.80;;;6.90;;
50309;SDS011;36207;51.850;21.698;2023-06-14T02:14:36;11.40;;;7.40;;
50309;SDS011;36207;51.850;21.698;2023-06-14T02:17:02;15.90;;;7.30;;
50309;SDS011;36207;51.850;21.698;2023-06-14T02:19:28;10.70;;;7.00;;
50309;SDS011;36207;51.850;21.698;2023-06-14T02:21:54;10.50;;;7.50;;
50309;SDS011;36207;51.850;21.698;2023-06-14T02:24:20;11.10;;;6.80;;
50309;SDS011;36207;51.850;21.698;2023-06-14T02:26:47;11.10;;;7.00;;
50309;SDS011;36207;51.850;21.698;2023-06-14T02:29:13;13.40;;;7.50;;
50309;SDS011;36207;51.850;21.698;2023-06-14T02:31:40;10.20;;;7.20;;
50309;SDS011;36207;51.850;21.698;2023-06-14T02:34:06;11.90;;;7.50;;
50309;SDS011;36207;51.850;21.698;2023-06-14T02:36:35;9.50;;;7.10;;
50309;SDS011;36207;51.850;21.698;2023-06-14T02:39:07;9.80;;;6.80;;
50309;SDS011;36207;51.850;21.698;2023-06-14T02:41:35;11.70;;;7.10;;
50309;SDS011;36207;51.850;21.698;2023-06-14T02:44:01;12.60;;;7.20;;
50309;SDS011;36207;51.850;21.698;2023-06-14T02:46:28;11.80;;;7.90;;
50309;SDS011;36207;51.850;21.698;2023-06-14T02:48:54;11.20;;;7.30;;
50309;SDS011;36207;51.850;21.698;2023-06-14T02:51:20;13.80;;;7.80;;
50309;SDS011;36207;51.850;21.698;2023-06-14T02:53:46;11.70;;;6.70;;
50309;SDS011;36207;51.850;21.698;2023-06-14T02:56:12;9.70;;;6.80;;
50309;SDS011;36207;51.850;21.698;2023-06-14T02:58:38;11.90;;;7.50;;
50309;SDS011;36207;51.850;21.698;2023-06-14T03:01:06;9.50;;;7.10;;
50309;SDS011;36207;51.850;21.698;2023-06-14T03:03:33;11.00;;;7.50;;
50309;SDS011;36207;51.850;21.698;2023-06-14T03:05:59;9.30;;;7.40;;
50309;SDS011;36207;51.850;21.698;2023-06-14T03:08:30;9.20;;;6.80;;
50309;SDS011;36207;51.850;21.698;2023-06-14T03:11:04;10.90;;;7.70;;
50309;SDS011;36207;51.850;21.698;2023-06-14T03:13:31;11.40;;;7.70;;
50309;SDS011;36207;51.850;21.698;2023-06-14T03:15:58;12.00;;;7.90;;
50309;SDS011;36207;51.850;21.698;2023-06-14T03:18:23;11.40;;;7.70;;
50309;SDS011;36207;51.850;21.698;2023-06-14T03:20:49;12.40;;;7.30;;
50309;SDS011;36207;51.850;21.698;2023-06-14T03:23:17;12.90;;;7.80;;
50309;SDS011;36207;51.850;21.698;2023-06-14T03:25:43;10.50;;;7.60;;
50309;SDS011;36207;51.850;21.698;2023-06-14T03:28:10;12.00;;;7.30;;
50309;SDS011;36207;51.850;21.698;2023-06-14T03:30:36;15.20;;;7.60;;
50309;SDS011;36207;51.850;21.698;2023-06-14T03:33:02;10.10;;;7.10;;
50309;SDS011;36207;51.850;21.698;2023-06-14T03:35:28;11.30;;;7.50;;
50309;SDS011;36207;51.850;21.698;2023-06-14T03:37:55;9.90;;;7.40;;
50309;SDS011;36207;51.850;21.698;2023-06-14T03:40:21;12.00;;;7.80;;
50309;SDS011;36207;51.850;21.698;2023-06-14T03:42:47;13.30;;;7.50;;
50309;SDS011;36207;51.850;21.698;2023-06-14T03:45:13;14.50;;;6.90;;
50309;SDS011;36207;51.850;21.698;2023-06-14T03:47:39;10.90;;;7.40;;
50309;SDS011;36207;51.850;21.698;2023-06-14T03:50:05;10.50;;;7.60;;
50309;SDS011;36207;51.850;21.698;2023-06-14T03:52:32;12.80;;;7.50;;
50309;SDS011;36207;51.850;21.698;2023-06-14T03:54:59;12.40;;;7.90;;
50309;SDS011;36207;51.850;21.698;2023-06-14T03:57:26;12.00;;;7.40;;
50309;SDS011;36207;51.850;21.698;2023-06-14T03:59:52;9.70;;;7.10;;
50309;SDS011;36207;51.850;21.698;2023-06-14T04:02:18;11.80;;;7.20;;
50309;SDS011;36207;51.850;21.698;2023-06-14T04:04:45;11.80;;;7.50;;
50309;SDS011;36207;51.850;21.698;2023-06-14T04:07:11;14.20;;;7.40;;
50309;SDS011;36207;51.850;21.698;2023-06-14T04:09:38;15.80;;;7.30;;
50309;SDS011;36207;51.850;21.698;2023-06-14T04:12:05;10.20;;;7.00;;
50309;SDS011;36207;51.850;21.698;2023-06-14T04:14:34;10.30;;;7.30;;
50309;SDS011;36207;51.850;21.698;2023-06-14T04:17:00;10.60;;;7.50;;
50309;SDS011;36207;51.850;21.698;2023-06-14T04:19:26;11.30;;;7.40;;
50309;SDS011;36207;51.850;21.698;2023-06-14T04:21:52;10.90;;;7.10;;
50309;SDS011;36207;51.850;21.698;2023-06-14T04:24:18;14.10;;;7.50;;
50309;SDS011;36207;51.850;21.698;2023-06-14T04:26:44;10.70;;;7.10;;
50309;SDS011;36207;51.850;21.698;2023-06-14T04:29:15;11.60;;;7.10;;
50309;SDS011;36207;51.850;21.698;2023-06-14T04:31:42;11.30;;;7.40;;
50309;SDS011;36207;51.850;21.698;2023-06-14T04:34:08;13.60;;;7.70;;
50309;SDS011;36207;51.850;21.698;2023-06-14T04:36:34;11.70;;;8.00;;
50309;SDS011;36207;51.850;21.698;2023-06-14T04:39:03;13.40;;;7.70;;
50309;SDS011;36207;51.850;21.698;2023-06-14T04:41:29;10.40;;;7.60;;
50309;SDS011;36207;51.850;21.698;2023-06-14T04:43:58;10.00;;;7.30;;
50309;SDS011;36207;51.850;21.698;2023-06-14T04:46:28;10.30;;;7.20;;
50309;SDS011;36207;51.850;21.698;2023-06-14T04:48:54;12.50;;;7.70;;
50309;SDS011;36207;51.850;21.698;2023-06-14T04:51:20;11.80;;;7.60;;
50309;SDS011;36207;51.850;21.698;2023-06-14T04:53:48;10.10;;;7.80;;
50309;SDS011;36207;51.850;21.698;2023-06-14T04:56:15;11.40;;;7.40;;
50309;SDS011;36207;51.850;21.698;2023-06-14T04:58:42;12.30;;;7.80;;
50309;SDS011;36207;51.850;21.698;2023-06-14T05:01:09;10.60;;;7.10;;
50309;SDS011;36207;51.850;21.698;2023-06-14T05:03:35;11.60;;;7.50;;
50309;SDS011;36207;51.850;21.698;2023-06-14T05:06:01;11.50;;;7.30;;
50309;SDS011;36207;51.850;21.698;2023-06-14T05:08:27;11.40;;;7.60;;
50309;SDS011;36207;51.850;21.698;2023-06-14T05:10:53;12.20;;;7.60;;
50309;SDS011;36207;51.850;21.698;2023-06-14T05:13:19;12.00;;;6.90;;
50309;SDS011;36207;51.850;21.698;2023-06-14T05:15:47;11.70;;;7.20;;
50309;SDS011;36207;51.850;21.698;2023-06-14T05:18:14;11.60;;;7.10;;
50309;SDS011;36207;51.850;21.698;2023-06-14T05:20:40;12.90;;;7.40;;
50309;SDS011;36207;51.850;21.698;2023-06-14T05:23:08;10.00;;;7.00;;
50309;SDS011;36207;51.850;21.698;2023-06-14T05:25:43;10.40;;;7.20;;
50309;SDS011;36207;51.850;21.698;2023-06-14T05:28:10;13.40;;;7.00;;
50309;SDS011;36207;51.850;21.698;2023-06-14T05:30:37;10.70;;;6.70;;
50309;SDS011;36207;51.850;21.698;2023-06-14T05:33:05;10.90;;;6.70;;
50309;SDS011;36207;51.850;21.698;2023-06-14T05:35:31;12.00;;;7.20;;
50309;SDS011;36207;51.850;21.698;2023-06-14T05:37:57;9.90;;;6.60;;
50309;SDS011;36207;51.850;21.698;2023-06-14T05:40:23;10.90;;;6.50;;
50309;SDS011;36207;51.850;21.698;2023-06-14T05:42:49;10.30;;;6.70;;
50309;SDS011;36207;51.850;21.698;2023-06-14T05:45:16;10.30;;;6.70;;
50309;SDS011;36207;51.850;21.698;2023-06-14T05:47:42;10.10;;;7.20;;
50309;SDS011;36207;51.850;21.698;2023-06-14T05:50:08;9.20;;;6.40;;
50309;SDS011;36207;51.850;21.698;2023-06-14T05:52:34;9.30;;;6.50;;
50309;SDS011;36207;51.850;21.698;2023-06-14T05:55:02;11.30;;;6.20;;
50309;SDS011;36207;51.850;21.698;2023-06-14T05:57:29;10.50;;;6.70;;
50309;SDS011;36207;51.850;21.698;2023-06-14T05:59:55;9.40;;;6.60;;
50309;SDS011;36207;51.850;21.698;2023-06-14T06:02:21;12.70;;;6.60;;
50309;SDS011;36207;51.850;21.698;2023-06-14T06:04:47;12.20;;;6.60;;
50309;SDS011;36207;51.850;21.698;2023-06-14T06:07:13;11.80;;;6.30;;
50309;SDS011;36207;51.850;21.698;2023-06-14T06:09:40;13.70;;;6.60;;
50309;SDS011;36207;51.850;21.698;2023-06-14T06:12:06;10.10;;;6.70;;
50309;SDS011;36207;51.850;21.698;2023-06-14T06:14:33;9.90;;;6.50;;
50309;SDS011;36207;51.850;21.698;2023-06-14T06:16:59;12.70;;;6.40;;
50309;SDS011;36207;51.850;21.698;2023-06-14T06:19:25;12.30;;;7.60;;
50309;SDS011;36207;51.850;21.698;2023-06-14T06:21:51;9.20;;;5.80;;
50309;SDS011;36207;51.850;21.698;2023-06-14T06:24:17;11.90;;;6.20;;
50309;SDS011;36207;51.850;21.698;2023-06-14T06:26:43;8.30;;;5.90;;
50309;SDS011;36207;51.850;21.698;2023-06-14T06:29:09;10.90;;;5.90;;
50309;SDS011;36207;51.850;21.698;2023-06-14T06:31:35;8.60;;;5.90;;
50309;SDS011;36207;51.850;21.698;2023-06-14T06:34:01;7.40;;;5.90;;
50309;SDS011;36207;51.850;21.698;2023-06-14T06:36:28;13.80;;;6.00;;
50309;SDS011;36207;51.850;21.698;2023-06-14T06:38:54;9.10;;;5.80;;
50309;SDS011;36207;51.850;21.698;2023-06-14T06:41:20;10.40;;;5.80;;
50309;SDS011;36207;51.850;21.698;2023-06-14T06:43:46;11.10;;;6.10;;
50309;SDS011;36207;51.850;21.698;2023-06-14T06:46:12;11.10;;;5.60;;
50309;SDS011;36207;51.850;21.698;2023-06-14T06:48:39;11.30;;;5.70;;
50309;SDS011;36207;51.850;21.698;2023-06-14T06:51:05;10.10;;;5.40;;
50309;SDS011;36207;51.850;21.698;2023-06-14T06:53:31;11.30;;;5.60;;
50309;SDS011;36207;51.850;21.698;2023-06-14T06:55:57;9.20;;;5.30;;
50309;SDS011;36207;51.850;21.698;2023-06-14T06:58:23;9.70;;;5.30;;
50309;SDS011;36207;51.850;21.698;2023-06-14T07:00:49;9.80;;;5.10;;
50309;SDS011;36207;51.850;21.698;2023-06-14T07:03:15;14.30;;;5.20;;
50309;SDS011;36207;51.850;21.698;2023-06-14T07:05:41;11.30;;;5.20;;
50309;SDS011;36207;51.850;21.698;2023-06-14T07:08:07;10.20;;;5.30;;
50309;SDS011;36207;51.850;21.698;2023-06-14T07:10:33;8.40;;;5.00;;
50309;SDS011;36207;51.850;21.698;2023-06-14T07:13:00;10.00;;;5.00;;
50309;SDS011;36207;51.850;21.698;2023-06-14T07:15:26;9.60;;;4.90;;
50309;SDS011;36207;51.850;21.698;2023-06-14T07:17:52;8.90;;;4.40;;
50309;SDS011;36207;51.850;21.698;2023-06-14T07:20:18;7.20;;;4.70;;
50309;SDS011;36207;51.850;21.698;2023-06-14T07:22:44;9.00;;;4.80;;
50309;SDS011;36207;51.850;21.698;2023-06-14T07:25:11;7.70;;;5.20;;
50309;SDS011;36207;51.850;21.698;2023-06-14T07:27:40;9.40;;;5.10;;
50309;SDS011;36207;51.850;21.698;2023-06-14T07:30:07;10.50;;;5.20;;
50309;SDS011;36207;51.850;21.698;2023-06-14T07:32:34;12.50;;;5.40;;
50309;SDS011;36207;51.850;21.698;2023-06-14T07:35:00;8.70;;;5.20;;
50309;SDS011;36207;51.850;21.698;2023-06-14T07:37:26;10.90;;;4.90;;
50309;SDS011;36207;51.850;21.698;2023-06-14T07:39:53;6.80;;;4.90;;
50309;SDS011;36207;51.850;21.698;2023-06-14T07:42:19;11.30;;;4.70;;
50309;SDS011;36207;51.850;21.698;2023-06-14T07:44:46;8.20;;;4.80;;
50309;SDS011;36207;51.850;21.698;2023-06-14T07:47:12;11.30;;;5.20;;
50309;SDS011;36207;51.850;21.698;2023-06-14T07:49:38;10.00;;;5.20;;
50309;SDS011;36207;51.850;21.698;2023-06-14T07:52:04;10.80;;;5.10;;
50309;SDS011;36207;51.850;21.698;2023-06-14T07:54:31;9.40;;;5.00;;
50309;SDS011;36207;51.850;21.698;2023-06-14T07:56:58;9.70;;;5.70;;
50309;SDS011;36207;51.850;21.698;2023-06-14T07:59:26;9.30;;;5.40;;
50309;SDS011;36207;51.850;21.698;2023-06-14T08:01:52;8.50;;;5.00;;
50309;SDS011;36207;51.850;21.698;2023-06-14T08:04:18;8.60;;;5.20;;
50309;SDS011;36207;51.850;21.698;2023-06-14T08:06:44;9.00;;;5.40;;
50309;SDS011;36207;51.850;21.698;2023-06-14T08:09:12;9.20;;;5.60;;
50309;SDS011;36207;51.850;21.698;2023-06-14T08:11:39;13.10;;;5.60;;
50309;SDS011;36207;51.850;21.698;2023-06-14T08:14:05;10.40;;;5.00;;
50309;SDS011;36207;51.850;21.698;2023-06-14T08:16:31;10.60;;;5.40;;
50309;SDS011;36207;51.850;21.698;2023-06-14T08:18:57;9.60;;;5.40;;
50309;SDS011;36207;51.850;21.698;2023-06-14T08:21:23;9.70;;;5.30;;
50309;SDS011;36207;51.850;21.698;2023-06-14T08:23:49;12.90;;;5.30;;
50309;SDS011;36207;51.850;21.698;2023-06-14T08:26:18;7.80;;;5.40;;
50309;SDS011;36207;51.850;21.698;2023-06-14T08:28:44;8.80;;;5.40;;
50309;SDS011;36207;51.850;21.698;2023-06-14T08:31:11;6.40;;;5.20;;
50309;SDS011;36207;51.850;21.698;2023-06-14T08:33:37;10.40;;;5.20;;
50309;SDS011;36207;51.850;21.698;2023-06-14T08:36:03;9.40;;;4.90;;
50309;SDS011;36207;51.850;21.698;2023-06-14T08:38:30;10.30;;;5.10;;
50309;SDS011;36207;51.850;21.698;2023-06-14T08:40:59;8.80;;;5.10;;
50309;SDS011;36207;51.850;21.698;2023-06-14T08:43:27;12.00;;;5.40;;
50309;SDS011;36207;51.850;21.698;2023-06-14T08:45:57;9.10;;;5.20;;
50309;SDS011;36207;51.850;21.698;2023-06-14T08:48:26;8.40;;;5.20;;
50309;SDS011;36207;51.850;21.698;2023-06-14T08:50:53;9.50;;;5.40;;
50309;SDS011;36207;51.850;21.698;2023-06-14T08:53:33;9.90;;;5.20;;
50309;SDS011;36207;51.850;21.698;2023-06-14T08:56:02;11.50;;;5.10;;
50309;SDS011;36207;51.850;21.698;2023-06-14T08:58:30;8.70;;;5.10;;
50309;SDS011;36207;51.850;21.698;2023-06-14T09:01:02;9.00;;;5.00;;
50309;SDS011;36207;51.850;21.698;2023-06-14T09:03:28;9.30;;;5.00;;
50309;SDS011;36207;51.850;21.698;2023-06-14T09:05:56;10.70;;;5.10;;
50309;SDS011;36207;51.850;21.698;2023-06-14T09:08:28;12.10;;;5.20;;
50309;SDS011;36207;51.850;21.698;2023-06-14T09:10:57;12.30;;;5.10;;
50309;SDS011;36207;51.850;21.698;2023-06-14T09:13:23;10.90;;;5.00;;
50309;SDS011;36207;51.850;21.698;2023-06-14T09:15:49;9.80;;;4.80;;
50309;SDS011;36207;51.850;21.698;2023-06-14T09:18:16;9.60;;;5.10;;
50309;SDS011;36207;51.850;21.698;2023-06-14T09:20:42;9.20;;;5.30;;
50309;SDS011;36207;51.850;21.698;2023-06-14T09:23:09;9.40;;;5.10;;
50309;SDS011;36207;51.850;21.698;2023-06-14T09:25:45;10.40;;;5.20;;
50309;SDS011;36207;51.850;21.698;2023-06-14T09:28:12;11.00;;;5.10;;
50309;SDS011;36207;51.850;21.698;2023-06-14T09:30:38;12.40;;;4.80;;
50309;SDS011;36207;51.850;21.698;2023-06-14T09:33:04;10.00;;;4.40;;
50309;SDS011;36207;51.850;21.698;2023-06-14T09:35:31;11.60;;;4.90;;
50309;SDS011;36207;51.850;21.698;2023-06-14T09:37:58;11.00;;;4.70;;
50309;SDS011;36207;51.850;21.698;2023-06-14T09:40:24;8.40;;;4.70;;
50309;SDS011;36207;51.850;21.698;2023-06-14T09:42:50;7.20;;;4.70;;
50309;SDS011;36207;51.850;21.698;2023-06-14T09:45:18;13.90;;;4.70;;
50309;SDS011;36207;51.850;21.698;2023-06-14T09:47:50;9.00;;;4.50;;
50309;SDS011;36207;51.850;21.698;2023-06-14T09:50:16;7.00;;;4.00;;
50309;SDS011;36207;51.850;21.698;2023-06-14T09:52:45;7.00;;;4.20;;
50309;SDS011;36207;51.850;21.698;2023-06-14T09:55:16;6.40;;;4.20;;
50309;SDS011;36207;51.850;21.698;2023-06-14T09:57:45;7.30;;;4.00;;
50309;SDS011;36207;51.850;21.698;2023-06-14T10:00:14;9.70;;;4.40;;
50309;SDS011;36207;51.850;21.698;2023-06-14T10:02:41;7.20;;;4.30;;
50309;SDS011;36207;51.850;21.698;2023-06-14T10:05:14;7.80;;;4.40;;
50309;SDS011;36207;51.850;21.698;2023-06-14T10:07:53;9.40;;;4.30;;
50309;SDS011;36207;51.850;21.698;2023-06-14T10:10:24;7.80;;;3.90;;
50309;SDS011;36207;51.850;21.698;2023-06-14T10:12:51;8.30;;;4.00;;
50309;SDS011;36207;51.850;21.698;2023-06-14T10:15:27;6.90;;;4.00;;
50309;SDS011;36207;51.850;21.698;2023-06-14T10:18:02;10.30;;;4.10;;
50309;SDS011;36207;51.850;21.698;2023-06-14T10:23:35;6.80;;;3.70;;
50309;SDS011;36207;51.850;21.698;2023-06-14T10:26:04;6.40;;;3.40;;
50309;SDS011;36207;51.850;21.698;2023-06-14T10:28:30;6.60;;;3.60;;
50309;SDS011;36207;51.850;21.698;2023-06-14T10:31:05;5.80;;;3.50;;
50309;SDS011;36207;51.850;21.698;2023-06-14T10:33:33;9.30;;;3.90;;
50309;SDS011;36207;51.850;21.698;2023-06-14T10:39:07;6.40;;;3.40;;
50309;SDS011;36207;51.850;21.698;2023-06-14T10:41:36;10.50;;;3.40;;
50309;SDS011;36207;51.850;21.698;2023-06-14T10:44:17;6.90;;;3.40;;
50309;SDS011;36207;51.850;21.698;2023-06-14T10:47:06;9.10;;;3.90;;
50309;SDS011;36207;51.850;21.698;2023-06-14T10:49:53;5.90;;;3.30;;
50309;SDS011;36207;51.850;21.698;2023-06-14T10:52:22;5.80;;;3.20;;
50309;SDS011;36207;51.850;21.698;2023-06-14T10:55:04;6.50;;;3.40;;
50309;SDS011;36207;51.850;21.698;2023-06-14T10:57:32;7.90;;;3.70;;
50309;SDS011;36207;51.850;21.698;2023-06-14T10:59:59;5.50;;;3.10;;
50309;SDS011;36207;51.850;21.698;2023-06-14T11:05:23;7.10;;;3.50;;
50309;SDS011;36207;51.850;21.698;2023-06-14T11:10:39;8.40;;;3.50;;
50309;SDS011;36207;51.850;21.698;2023-06-14T11:13:08;6.50;;;3.60;;
50309;SDS011;36207;51.850;21.698;2023-06-14T11:15:36;5.50;;;3.50;;
50309;SDS011;36207;51.850;21.698;2023-06-14T11:18:08;6.80;;;3.80;;
50309;SDS011;36207;51.850;21.698;2023-06-14T11:20:37;4.60;;;3.50;;
50309;SDS011;36207;51.850;21.698;2023-06-14T11:23:05;9.30;;;3.70;;
50309;SDS011;36207;51.850;21.698;2023-06-14T11:25:32;6.20;;;3.90;;
50309;SDS011;36207;51.850;21.698;2023-06-14T11:27:58;5.90;;;3.90;;
50309;SDS011;36207;51.850;21.698;2023-06-14T11:30:25;8.20;;;4.20;;
50309;SDS011;36207;51.850;21.698;2023-06-14T11:32:52;5.60;;;4.00;;
50309;SDS011;36207;51.850;21.698;2023-06-14T11:35:20;7.20;;;4.00;;
50309;SDS011;36207;51.850;21.698;2023-06-14T11:37:49;7.20;;;4.00;;
50309;SDS011;36207;51.850;21.698;2023-06-14T11:40:19;6.20;;;4.00;;
50309;SDS011;36207;51.850;21.698;2023-06-14T11:42:45;7.90;;;3.90;;
50309;SDS011;36207;51.850;21.698;2023-06-14T11:45:11;9.70;;;4.10;;
50309;SDS011;36207;51.850;21.698;2023-06-14T11:47:38;6.50;;;4.00;;
50309;SDS011;36207;51.850;21.698;2023-06-14T11:50:06;12.90;;;4.10;;
50309;SDS011;36207;51.850;21.698;2023-06-14T11:52:34;9.20;;;4.20;;
50309;SDS011;36207;51.850;21.698;2023-06-14T11:55:03;7.30;;;4.00;;
50309;SDS011;36207;51.850;21.698;2023-06-14T11:57:35;6.80;;;4.30;;
50309;SDS011;36207;51.850;21.698;2023-06-14T12:00:07;8.10;;;4.40;;
50309;SDS011;36207;51.850;21.698;2023-06-14T12:02:38;11.30;;;4.50;;
50309;SDS011;36207;51.850;21.698;2023-06-14T12:05:06;7.50;;;4.40;;
50309;SDS011;36207;51.850;21.698;2023-06-14T12:07:36;11.60;;;4.50;;
50309;SDS011;36207;51.850;21.698;2023-06-14T12:10:06;6.30;;;4.30;;
50309;SDS011;36207;51.850;21.698;2023-06-14T12:12:37;6.90;;;4.50;;
50309;SDS011;36207;51.850;21.698;2023-06-14T12:15:05;9.10;;;4.60;;
50309;SDS011;36207;51.850;21.698;2023-06-14T12:17:33;10.80;;;4.60;;
50309;SDS011;36207;51.850;21.698;2023-06-14T12:20:05;7.00;;;4.60;;
50309;SDS011;36207;51.850;21.698;2023-06-14T12:22:55;8.20;;;4.50;;
50309;SDS011;36207;51.850;21.698;2023-06-14T12:25:26;8.40;;;4.20;;
50309;SDS011;36207;51.850;21.698;2023-06-14T12:28:04;8.20;;;4.40;;
50309;SDS011;36207;51.850;21.698;2023-06-14T12:30:32;7.90;;;4.50;;
50309;SDS011;36207;51.850;21.698;2023-06-14T12:32:59;7.20;;;4.30;;
50309;SDS011;36207;51.850;21.698;2023-06-14T12:35:26;9.90;;;4.60;;
50309;SDS011;36207;51.850;21.698;2023-06-14T12:37:52;7.40;;;4.30;;
50309;SDS011;36207;51.850;21.698;2023-06-14T12:40:18;6.30;;;4.50;;
50309;SDS011;36207;51.850;21.698;2023-06-14T12:42:44;7.50;;;5.10;;
50309;SDS011;36207;51.850;21.698;2023-06-14T12:45:13;8.30;;;4.70;;
50309;SDS011;36207;51.850;21.698;2023-06-14T12:47:39;8.10;;;4.80;;
50309;SDS011;36207;51.850;21.698;2023-06-14T12:50:05;13.10;;;5.20;;
50309;SDS011;36207;51.850;21.698;2023-06-14T12:52:32;8.00;;;5.00;;
50309;SDS011;36207;51.850;21.698;2023-06-14T12:55:02;8.10;;;4.90;;
50309;SDS011;36207;51.850;21.698;2023-06-14T12:57:29;10.00;;;5.20;;
50309;SDS011;36207;51.850;21.698;2023-06-14T12:59:55;9.50;;;5.80;;
50309;SDS011;36207;51.850;21.698;2023-06-14T13:02:21;9.30;;;5.40;;
50309;SDS011;36207;51.850;21.698;2023-06-14T13:04:49;9.90;;;5.70;;
50309;SDS011;36207;51.850;21.698;2023-06-14T13:07:15;15.20;;;6.10;;
50309;SDS011;36207;51.850;21.698;2023-06-14T13:09:41;10.30;;;6.10;;
50309;SDS011;36207;51.850;21.698;2023-06-14T13:12:11;8.70;;;5.70;;
50309;SDS011;36207;51.850;21.698;2023-06-14T13:14:38;9.80;;;6.20;;
50309;SDS011;36207;51.850;21.698;2023-06-14T13:17:09;11.40;;;6.30;;
50309;SDS011;36207;51.850;21.698;2023-06-14T13:19:35;9.40;;;6.50;;
50309;SDS011;36207;51.850;21.698;2023-06-14T13:22:02;11.80;;;6.80;;
50309;SDS011;36207;51.850;21.698;2023-06-14T13:24:28;9.50;;;6.80;;
50309;SDS011;36207;51.850;21.698;2023-06-14T13:26:55;12.90;;;6.70;;
50309;SDS011;36207;51.850;21.698;2023-06-14T13:29:25;12.80;;;6.80;;
50309;SDS011;36207;51.850;21.698;2023-06-14T13:31:52;11.50;;;7.10;;
50309;SDS011;36207;51.850;21.698;2023-06-14T13:34:18;10.50;;;6.50;;
50309;SDS011;36207;51.850;21.698;2023-06-14T13:36:45;10.60;;;6.80;;
50309;SDS011;36207;51.850;21.698;2023-06-14T13:39:11;13.30;;;6.10;;
50309;SDS011;36207;51.850;21.698;2023-06-14T13:41:37;9.80;;;6.10;;
50309;SDS011;36207;51.850;21.698;2023-06-14T13:44:03;11.00;;;6.50;;
50309;SDS011;36207;51.850;21.698;2023-06-14T13:46:30;9.10;;;5.90;;
50309;SDS011;36207;51.850;21.698;2023-06-14T13:48:56;10.90;;;6.40;;
50309;SDS011;36207;51.850;21.698;2023-06-14T13:51:23;10.20;;;5.80;;
50309;SDS011;36207;51.850;21.698;2023-06-14T13:53:49;9.20;;;6.40;;
50309;SDS011;36207;51.850;21.698;2023-06-14T13:56:16;11.40;;;6.20;;
50309;SDS011;36207;51.850;21.698;2023-06-14T13:58:43;13.30;;;6.20;;
50309;SDS011;36207;51.850;21.698;2023-06-14T14:01:09;7.90;;;6.10;;
50309;SDS011;36207;51.850;21.698;2023-06-14T14:03:35;9.40;;;6.40;;
50309;SDS011;36207;51.850;21.698;2023-06-14T14:06:04;11.10;;;6.40;;
50309;SDS011;36207;51.850;21.698;2023-06-14T14:08:31;9.20;;;5.90;;
50309;SDS011;36207;51.850;21.698;2023-06-14T14:10:57;14.00;;;6.50;;
50309;SDS011;36207;51.850;21.698;2023-06-14T14:13:23;11.20;;;6.00;;
50309;SDS011;36207;51.850;21.698;2023-06-14T14:15:50;10.30;;;5.80;;
50309;SDS011;36207;51.850;21.698;2023-06-14T14:18:16;11.50;;;5.70;;
50309;SDS011;36207;51.850;21.698;2023-06-14T14:20:42;9.40;;;5.80;;
50309;SDS011;36207;51.850;21.698;2023-06-14T14:23:09;7.90;;;5.50;;
50309;SDS011;36207;51.850;21.698;2023-06-14T14:25:35;11.90;;;6.10;;
50309;SDS011;36207;51.850;21.698;2023-06-14T14:28:01;8.60;;;5.50;;
50309;SDS011;36207;51.850;21.698;2023-06-14T14:30:27;9.00;;;6.00;;
50309;SDS011;36207;51.850;21.698;2023-06-14T14:32:53;9.30;;;5.70;;
50309;SDS011;36207;51.850;21.698;2023-06-14T14:35:19;11.00;;;5.80;;
50309;SDS011;36207;51.850;21.698;2023-06-14T14:37:45;9.30;;;6.10;;
50309;SDS011;36207;51.850;21.698;2023-06-14T14:40:11;8.30;;;5.80;;
50309;SDS011;36207;51.850;21.698;2023-06-14T14:42:37;8.30;;;5.70;;
50309;SDS011;36207;51.850;21.698;2023-06-14T14:45:04;8.00;;;6.00;;